sensor_id;sensor_type;location;lat;lon;timestamp;P1;durP1;ratioP1;P2;durP2;ratioP2
43216;SDS011;71549;42.686;23.300;2023-11-19T00:00:16;0.80;;;0.50;;
43216;SDS011;71549;42.686;23.300;2023-11-19T00:02:17;0.50;;;0.50;;
43216;SDS011;71549;42.686;23.300;2023-11-19T00:04:18;1.33;;;0.70;;
43216;SDS011;71549;42.686;23.300;2023-11-19T00:06:19;1.10;;;0.88;;
43216;SDS011;71549;42.686;23.300;2023-11-19T00:08:19;1.85;;;1.00;;
43216;SDS011;71549;42.686;23.300;2023-11-19T00:10:20;0.88;;;0.70;;
43216;SDS011;71549;42.686;23.300;2023-11-19T00:12:21;0.70;;;0.70;;
43216;SDS011;71549;42.686;23.300;2023-11-19T00:14:22;0.60;;;0.60;;
43216;SDS011;71549;42.686;23.300;2023-11-19T00:16:22;0.70;;;0.70;;
43216;SDS011;71549;42.686;23.300;2023-11-19T00:18:23;1.45;;;0.93;;
43216;SDS011;71549;42.686;23.300;2023-11-19T00:20:23;1.27;;;0.88;;
43216;SDS011;71549;42.686;23.300;2023-11-19T00:22:24;0.95;;;0.80;;
43216;SDS011;71549;42.686;23.300;2023-11-19T00:24:26;0.82;;;0.82;;
43216;SDS011;71549;42.686;23.300;2023-11-19T00:26:26;0.60;;;0.60;;
43216;SDS011;71549;42.686;23.300;2023-11-19T00:28:26;1.17;;;0.85;;
43216;SDS011;71549;42.686;23.300;2023-11-19T00:30:27;0.93;;;0.60;;
43216;SDS011;71549;42.686;23.300;2023-11-19T00:32:27;1.05;;;0.75;;
43216;SDS011;71549;42.686;23.300;2023-11-19T00:34:28;1.60;;;0.60;;
43216;SDS011;71549;42.686;23.300;2023-11-19T00:36:28;0.55;;;0.55;;
43216;SDS011;71549;42.686;23.300;2023-11-19T00:38:29;0.70;;;0.60;;
43216;SDS011;71549;42.686;23.300;2023-11-19T00:40:29;0.80;;;0.63;;
43216;SDS011;71549;42.686;23.300;2023-11-19T00:42:30;1.30;;;0.70;;
43216;SDS011;71549;42.686;23.300;2023-11-19T00:44:30;0.60;;;0.60;;
43216;SDS011;71549;42.686;23.300;2023-11-19T00:46:31;0.82;;;0.63;;
43216;SDS011;71549;42.686;23.300;2023-11-19T00:48:32;0.70;;;0.52;;
43216;SDS011;71549;42.686;23.300;2023-11-19T00:50:33;0.50;;;0.40;;
43216;SDS011;71549;42.686;23.300;2023-11-19T00:52:33;0.60;;;0.50;;
43216;SDS011;71549;42.686;23.300;2023-11-19T00:54:33;0.90;;;0.65;;
43216;SDS011;71549;42.686;23.300;2023-11-19T00:56:34;1.10;;;1.00;;
43216;SDS011;71549;42.686;23.300;2023-11-19T00:58:34;0.70;;;0.70;;
43216;SDS011;71549;42.686;23.300;2023-11-19T01:00:35;1.10;;;0.80;;
43216;SDS011;71549;42.686;23.300;2023-11-19T01:02:35;1.42;;;0.40;;
43216;SDS011;71549;42.686;23.300;2023-11-19T01:04:36;0.68;;;0.60;;
43216;SDS011;71549;42.686;23.300;2023-11-19T01:06:36;1.25;;;0.60;;
43216;SDS011;71549;42.686;23.300;2023-11-19T01:08:37;0.70;;;0.60;;
43216;SDS011;71549;42.686;23.300;2023-11-19T01:10:37;0.52;;;0.52;;
43216;SDS011;71549;42.686;23.300;2023-11-19T01:12:38;0.70;;;0.60;;
43216;SDS011;71549;42.686;23.300;2023-11-19T01:14:38;0.63;;;0.60;;
43216;SDS011;71549;42.686;23.300;2023-11-19T01:16:39;0.98;;;0.75;;
43216;SDS011;71549;42.686;23.300;2023-11-19T01:18:39;1.10;;;1.00;;
43216;SDS011;71549;42.686;23.300;2023-11-19T01:20:39;0.88;;;0.77;;
43216;SDS011;71549;42.686;23.300;2023-11-19T01:22:40;0.57;;;0.57;;
43216;SDS011;71549;42.686;23.300;2023-11-19T01:24:41;0.95;;;0.65;;
43216;SDS011;71549;42.686;23.300;2023-11-19T01:26:41;0.70;;;0.60;;
43216;SDS011;71549;42.686;23.300;2023-11-19T01:28:46;0.73;;;0.73;;
43216;SDS011;71549;42.686;23.300;2023-11-19T01:30:50;0.60;;;0.50;;
43216;SDS011;71549;42.686;23.300;2023-11-19T01:32:51;0.73;;;0.60;;
43216;SDS011;71549;42.686;23.300;2023-11-19T01:34:51;0.75;;;0.70;;
43216;SDS011;71549;42.686;23.300;2023-11-19T01:36:52;0.70;;;0.65;;
43216;SDS011;71549;42.686;23.300;2023-11-19T01:38:53;0.68;;;0.50;;
43216;SDS011;71549;42.686;23.300;2023-11-19T01:40:56;1.40;;;0.70;;
43216;SDS011;71549;42.686;23.300;2023-11-19T01:42:57;0.77;;;0.77;;
43216;SDS011;71549;42.686;23.300;2023-11-19T01:44:58;0.70;;;0.70;;
43216;SDS011;71549;42.686;23.300;2023-11-19T01:46:59;0.68;;;0.50;;
43216;SDS011;71549;42.686;23.300;2023-11-19T01:49:00;0.57;;;0.50;;
43216;SDS011;71549;42.686;23.300;2023-11-19T01:51:02;0.77;;;0.70;;
43216;SDS011;71549;42.686;23.300;2023-11-19T01:53:04;0.73;;;0.40;;
43216;SDS011;71549;42.686;23.300;2023-11-19T01:55:04;0.70;;;0.70;;
43216;SDS011;71549;42.686;23.300;2023-11-19T01:57:08;0.60;;;0.60;;
43216;SDS011;71549;42.686;23.300;2023-11-19T01:59:09;0.70;;;0.50;;
43216;SDS011;71549;42.686;23.300;2023-11-19T02:01:13;1.30;;;0.43;;
43216;SDS011;71549;42.686;23.300;2023-11-19T02:03:13;1.05;;;0.68;;
43216;SDS011;71549;42.686;23.300;2023-11-19T02:05:14;0.75;;;0.70;;
43216;SDS011;71549;42.686;23.300;2023-11-19T02:07:16;0.88;;;0.60;;
43216;SDS011;71549;42.686;23.300;2023-11-19T02:09:17;1.00;;;0.90;;
43216;SDS011;71549;42.686;23.300;2023-11-19T02:11:19;0.65;;;0.43;;
43216;SDS011;71549;42.686;23.300;2023-11-19T02:13:19;0.70;;;0.68;;
43216;SDS011;71549;42.686;23.300;2023-11-19T02:15:20;0.63;;;0.57;;
43216;SDS011;71549;42.686;23.300;2023-11-19T02:17:27;0.70;;;0.60;;
43216;SDS011;71549;42.686;23.300;2023-11-19T02:19:31;0.60;;;0.50;;
43216;SDS011;71549;42.686;23.300;2023-11-19T02:21:31;0.70;;;0.40;;
43216;SDS011;71549;42.686;23.300;2023-11-19T02:23:32;0.60;;;0.55;;
43216;SDS011;71549;42.686;23.300;2023-11-19T02:25:33;0.70;;;0.70;;
43216;SDS011;71549;42.686;23.300;2023-11-19T02:29:38;0.45;;;0.45;;
43216;SDS011;71549;42.686;23.300;2023-11-19T02:31:39;0.70;;;0.60;;
43216;SDS011;71549;42.686;23.300;2023-11-19T02:33:39;0.40;;;0.40;;
43216;SDS011;71549;42.686;23.300;2023-11-19T02:35:40;0.93;;;0.52;;
43216;SDS011;71549;42.686;23.300;2023-11-19T02:37:41;0.57;;;0.50;;
43216;SDS011;71549;42.686;23.300;2023-11-19T02:39:41;0.75;;;0.60;;
43216;SDS011;71549;42.686;23.300;2023-11-19T02:41:42;0.50;;;0.50;;
43216;SDS011;71549;42.686;23.300;2023-11-19T02:43:42;0.57;;;0.50;;
43216;SDS011;71549;42.686;23.300;2023-11-19T02:45:43;0.70;;;0.70;;
43216;SDS011;71549;42.686;23.300;2023-11-19T02:47:45;0.90;;;0.55;;
43216;SDS011;71549;42.686;23.300;2023-11-19T02:49:46;0.50;;;0.50;;
43216;SDS011;71549;42.686;23.300;2023-11-19T02:51:46;0.65;;;0.65;;
43216;SDS011;71549;42.686;23.300;2023-11-19T02:53:48;0.50;;;0.50;;
43216;SDS011;71549;42.686;23.300;2023-11-19T02:55:48;0.77;;;0.68;;
43216;SDS011;71549;42.686;23.300;2023-11-19T02:57:50;0.77;;;0.47;;
43216;SDS011;71549;42.686;23.300;2023-11-19T02:59:53;0.70;;;0.70;;
43216;SDS011;71549;42.686;23.300;2023-11-19T03:01:56;0.73;;;0.47;;
43216;SDS011;71549;42.686;23.300;2023-11-19T03:03:57;0.77;;;0.55;;
43216;SDS011;71549;42.686;23.300;2023-11-19T03:05:58;1.25;;;0.55;;
43216;SDS011;71549;42.686;23.300;2023-11-19T03:07:58;0.93;;;0.57;;
43216;SDS011;71549;42.686;23.300;2023-11-19T03:09:59;0.70;;;0.65;;
43216;SDS011;71549;42.686;23.300;2023-11-19T03:12:00;0.60;;;0.60;;
43216;SDS011;71549;42.686;23.300;2023-11-19T03:14:01;0.70;;;0.65;;
43216;SDS011;71549;42.686;23.300;2023-11-19T03:16:03;0.65;;;0.47;;
43216;SDS011;71549;42.686;23.300;2023-11-19T03:18:04;0.65;;;0.55;;
43216;SDS011;71549;42.686;23.300;2023-11-19T03:20:08;0.43;;;0.40;;
43216;SDS011;71549;42.686;23.300;2023-11-19T03:22:10;0.60;;;0.60;;
43216;SDS011;71549;42.686;23.300;2023-11-19T03:24:13;0.57;;;0.50;;
43216;SDS011;71549;42.686;23.300;2023-11-19T03:26:15;0.40;;;0.40;;
43216;SDS011;71549;42.686;23.300;2023-11-19T03:28:15;0.57;;;0.50;;
43216;SDS011;71549;42.686;23.300;2023-11-19T03:30:16;0.57;;;0.43;;
43216;SDS011;71549;42.686;23.300;2023-11-19T03:32:17;0.45;;;0.45;;
43216;SDS011;71549;42.686;23.300;2023-11-19T03:34:18;0.68;;;0.60;;
43216;SDS011;71549;42.686;23.300;2023-11-19T03:36:18;0.50;;;0.50;;
43216;SDS011;71549;42.686;23.300;2023-11-19T03:38:19;0.55;;;0.55;;
43216;SDS011;71549;42.686;23.300;2023-11-19T03:40:19;0.50;;;0.50;;
43216;SDS011;71549;42.686;23.300;2023-11-19T03:42:20;1.00;;;0.60;;
43216;SDS011;71549;42.686;23.300;2023-11-19T03:44:21;0.88;;;0.77;;
43216;SDS011;71549;42.686;23.300;2023-11-19T03:46:22;0.60;;;0.60;;
43216;SDS011;71549;42.686;23.300;2023-11-19T03:48:22;0.52;;;0.50;;
43216;SDS011;71549;42.686;23.300;2023-11-19T03:50:23;0.38;;;0.35;;
43216;SDS011;71549;42.686;23.300;2023-11-19T03:52:23;0.60;;;0.60;;
43216;SDS011;71549;42.686;23.300;2023-11-19T03:54:23;0.57;;;0.50;;
43216;SDS011;71549;42.686;23.300;2023-11-19T03:56:24;0.80;;;0.40;;
43216;SDS011;71549;42.686;23.300;2023-11-19T03:58:24;0.90;;;0.70;;
43216;SDS011;71549;42.686;23.300;2023-11-19T04:00:25;0.90;;;0.80;;
43216;SDS011;71549;42.686;23.300;2023-11-19T04:02:25;0.68;;;0.68;;
43216;SDS011;71549;42.686;23.300;2023-11-19T04:04:29;0.43;;;0.40;;
43216;SDS011;71549;42.686;23.300;2023-11-19T04:06:29;0.90;;;0.50;;
43216;SDS011;71549;42.686;23.300;2023-11-19T04:08:30;0.77;;;0.50;;
43216;SDS011;71549;42.686;23.300;2023-11-19T04:10:30;0.68;;;0.68;;
43216;SDS011;71549;42.686;23.300;2023-11-19T04:12:31;0.80;;;0.80;;
43216;SDS011;71549;42.686;23.300;2023-11-19T04:14:31;0.70;;;0.65;;
43216;SDS011;71549;42.686;23.300;2023-11-19T04:16:31;0.55;;;0.50;;
43216;SDS011;71549;42.686;23.300;2023-11-19T04:18:32;0.65;;;0.65;;
43216;SDS011;71549;42.686;23.300;2023-11-19T04:20:32;0.38;;;0.30;;
43216;SDS011;71549;42.686;23.300;2023-11-19T04:22:33;0.90;;;0.60;;
43216;SDS011;71549;42.686;23.300;2023-11-19T04:24:33;0.60;;;0.52;;
43216;SDS011;71549;42.686;23.300;2023-11-19T04:26:34;0.73;;;0.73;;
43216;SDS011;71549;42.686;23.300;2023-11-19T04:28:34;0.73;;;0.55;;
43216;SDS011;71549;42.686;23.300;2023-11-19T04:30:35;0.75;;;0.70;;
43216;SDS011;71549;42.686;23.300;2023-11-19T04:32:35;0.47;;;0.47;;
43216;SDS011;71549;42.686;23.300;2023-11-19T04:34:37;0.47;;;0.47;;
43216;SDS011;71549;42.686;23.300;2023-11-19T04:36:37;0.93;;;0.52;;
43216;SDS011;71549;42.686;23.300;2023-11-19T04:38:37;0.65;;;0.50;;
43216;SDS011;71549;42.686;23.300;2023-11-19T04:42:42;0.75;;;0.75;;
43216;SDS011;71549;42.686;23.300;2023-11-19T04:44:42;0.82;;;0.75;;
43216;SDS011;71549;42.686;23.300;2023-11-19T04:46:44;0.70;;;0.60;;
43216;SDS011;71549;42.686;23.300;2023-11-19T04:48:44;0.70;;;0.70;;
43216;SDS011;71549;42.686;23.300;2023-11-19T04:50:45;0.50;;;0.50;;
43216;SDS011;71549;42.686;23.300;2023-11-19T04:52:45;0.73;;;0.60;;
43216;SDS011;71549;42.686;23.300;2023-11-19T04:54:46;0.60;;;0.50;;
43216;SDS011;71549;42.686;23.300;2023-11-19T04:56:46;0.80;;;0.73;;
43216;SDS011;71549;42.686;23.300;2023-11-19T04:58:49;0.60;;;0.60;;
43216;SDS011;71549;42.686;23.300;2023-11-19T05:00:50;0.65;;;0.60;;
43216;SDS011;71549;42.686;23.300;2023-11-19T05:02:50;0.85;;;0.60;;
43216;SDS011;71549;42.686;23.300;2023-11-19T05:04:51;0.52;;;0.52;;
43216;SDS011;71549;42.686;23.300;2023-11-19T05:06:51;1.00;;;0.57;;
43216;SDS011;71549;42.686;23.300;2023-11-19T05:08:53;0.38;;;0.38;;
43216;SDS011;71549;42.686;23.300;2023-11-19T05:10:54;0.70;;;0.65;;
43216;SDS011;71549;42.686;23.300;2023-11-19T05:12:54;0.60;;;0.60;;
43216;SDS011;71549;42.686;23.300;2023-11-19T05:14:56;0.63;;;0.60;;
43216;SDS011;71549;42.686;23.300;2023-11-19T05:16:57;0.60;;;0.60;;
43216;SDS011;71549;42.686;23.300;2023-11-19T05:18:57;0.68;;;0.60;;
43216;SDS011;71549;42.686;23.300;2023-11-19T05:20:58;0.57;;;0.50;;
43216;SDS011;71549;42.686;23.300;2023-11-19T05:22:58;0.50;;;0.50;;
43216;SDS011;71549;42.686;23.300;2023-11-19T05:25:00;0.70;;;0.70;;
43216;SDS011;71549;42.686;23.300;2023-11-19T05:27:02;0.88;;;0.82;;
43216;SDS011;71549;42.686;23.300;2023-11-19T05:29:03;1.38;;;0.90;;
43216;SDS011;71549;42.686;23.300;2023-11-19T05:31:04;0.77;;;0.50;;
43216;SDS011;71549;42.686;23.300;2023-11-19T05:33:07;0.70;;;0.57;;
43216;SDS011;71549;42.686;23.300;2023-11-19T05:35:08;1.52;;;0.80;;
43216;SDS011;71549;42.686;23.300;2023-11-19T05:37:08;0.60;;;0.47;;
43216;SDS011;71549;42.686;23.300;2023-11-19T05:39:10;0.50;;;0.50;;
43216;SDS011;71549;42.686;23.300;2023-11-19T05:41:11;0.60;;;0.55;;
43216;SDS011;71549;42.686;23.300;2023-11-19T05:43:12;0.38;;;0.38;;
43216;SDS011;71549;42.686;23.300;2023-11-19T05:45:12;0.82;;;0.82;;
43216;SDS011;71549;42.686;23.300;2023-11-19T05:47:12;0.80;;;0.80;;
43216;SDS011;71549;42.686;23.300;2023-11-19T05:49:13;0.88;;;0.60;;
43216;SDS011;71549;42.686;23.300;2023-11-19T05:51:13;0.50;;;0.45;;
43216;SDS011;71549;42.686;23.300;2023-11-19T05:55:17;0.43;;;0.43;;
43216;SDS011;71549;42.686;23.300;2023-11-19T05:57:19;0.82;;;0.80;;
43216;SDS011;71549;42.686;23.300;2023-11-19T05:59:25;0.93;;;0.70;;
43216;SDS011;71549;42.686;23.300;2023-11-19T06:01:26;0.75;;;0.73;;
43216;SDS011;71549;42.686;23.300;2023-11-19T06:03:26;0.60;;;0.52;;
43216;SDS011;71549;42.686;23.300;2023-11-19T06:05:27;0.50;;;0.50;;
43216;SDS011;71549;42.686;23.300;2023-11-19T06:07:28;0.57;;;0.50;;
43216;SDS011;71549;42.686;23.300;2023-11-19T06:09:28;0.65;;;0.60;;
43216;SDS011;71549;42.686;23.300;2023-11-19T06:11:29;0.60;;;0.60;;
43216;SDS011;71549;42.686;23.300;2023-11-19T06:13:29;0.85;;;0.80;;
43216;SDS011;71549;42.686;23.300;2023-11-19T06:15:32;0.70;;;0.70;;
43216;SDS011;71549;42.686;23.300;2023-11-19T06:17:33;0.57;;;0.57;;
43216;SDS011;71549;42.686;23.300;2023-11-19T06:19:34;0.70;;;0.68;;
43216;SDS011;71549;42.686;23.300;2023-11-19T06:21:34;1.13;;;0.65;;
43216;SDS011;71549;42.686;23.300;2023-11-19T06:23:36;0.50;;;0.40;;
43216;SDS011;71549;42.686;23.300;2023-11-19T06:25:37;0.90;;;0.77;;
43216;SDS011;71549;42.686;23.300;2023-11-19T06:27:38;0.95;;;0.52;;
43216;SDS011;71549;42.686;23.300;2023-11-19T06:29:38;0.70;;;0.65;;
43216;SDS011;71549;42.686;23.300;2023-11-19T06:31:40;0.40;;;0.40;;
43216;SDS011;71549;42.686;23.300;2023-11-19T06:33:42;0.93;;;0.70;;
43216;SDS011;71549;42.686;23.300;2023-11-19T06:35:42;0.73;;;0.57;;
43216;SDS011;71549;42.686;23.300;2023-11-19T06:37:43;0.57;;;0.50;;
43216;SDS011;71549;42.686;23.300;2023-11-19T06:39:44;1.10;;;1.00;;
43216;SDS011;71549;42.686;23.300;2023-11-19T06:41:45;0.70;;;0.68;;
43216;SDS011;71549;42.686;23.300;2023-11-19T06:43:46;0.50;;;0.50;;
43216;SDS011;71549;42.686;23.300;2023-11-19T06:45:46;0.95;;;0.75;;
43216;SDS011;71549;42.686;23.300;2023-11-19T06:47:47;0.60;;;0.60;;
43216;SDS011;71549;42.686;23.300;2023-11-19T06:49:48;0.60;;;0.60;;
43216;SDS011;71549;42.686;23.300;2023-11-19T06:51:48;0.90;;;0.90;;
43216;SDS011;71549;42.686;23.300;2023-11-19T06:53:49;0.75;;;0.70;;
43216;SDS011;71549;42.686;23.300;2023-11-19T06:55:49;1.00;;;0.90;;
43216;SDS011;71549;42.686;23.300;2023-11-19T06:57:50;0.80;;;0.80;;
43216;SDS011;71549;42.686;23.300;2023-11-19T06:59:50;0.70;;;0.70;;
43216;SDS011;71549;42.686;23.300;2023-11-19T07:01:50;0.98;;;0.70;;
43216;SDS011;71549;42.686;23.300;2023-11-19T07:03:51;0.93;;;0.82;;
43216;SDS011;71549;42.686;23.300;2023-11-19T07:05:51;0.70;;;0.60;;
43216;SDS011;71549;42.686;23.300;2023-11-19T07:07:52;0.70;;;0.63;;
43216;SDS011;71549;42.686;23.300;2023-11-19T07:09:52;0.70;;;0.70;;
43216;SDS011;71549;42.686;23.300;2023-11-19T07:11:52;0.85;;;0.80;;
43216;SDS011;71549;42.686;23.300;2023-11-19T07:13:53;0.70;;;0.70;;
43216;SDS011;71549;42.686;23.300;2023-11-19T07:15:55;1.00;;;0.90;;
43216;SDS011;71549;42.686;23.300;2023-11-19T07:17:56;1.13;;;0.93;;
43216;SDS011;71549;42.686;23.300;2023-11-19T07:19:59;0.98;;;0.70;;
43216;SDS011;71549;42.686;23.300;2023-11-19T07:21:59;0.80;;;0.80;;
43216;SDS011;71549;42.686;23.300;2023-11-19T07:24:00;1.10;;;1.00;;
43216;SDS011;71549;42.686;23.300;2023-11-19T07:26:06;0.73;;;0.73;;
43216;SDS011;71549;42.686;23.300;2023-11-19T07:28:09;0.95;;;0.82;;
43216;SDS011;71549;42.686;23.300;2023-11-19T07:30:10;0.70;;;0.70;;
43216;SDS011;71549;42.686;23.300;2023-11-19T07:32:11;1.05;;;0.95;;
43216;SDS011;71549;42.686;23.300;2023-11-19T07:34:13;1.05;;;0.77;;
43216;SDS011;71549;42.686;23.300;2023-11-19T07:36:14;0.80;;;0.60;;
43216;SDS011;71549;42.686;23.300;2023-11-19T07:38:16;0.88;;;0.82;;
43216;SDS011;71549;42.686;23.300;2023-11-19T07:40:16;1.33;;;1.10;;
43216;SDS011;71549;42.686;23.300;2023-11-19T07:42:16;0.90;;;0.90;;
43216;SDS011;71549;42.686;23.300;2023-11-19T07:44:17;1.23;;;1.00;;
43216;SDS011;71549;42.686;23.300;2023-11-19T07:46:17;0.93;;;0.93;;
43216;SDS011;71549;42.686;23.300;2023-11-19T07:48:21;1.08;;;0.98;;
43216;SDS011;71549;42.686;23.300;2023-11-19T07:50:23;1.00;;;0.90;;
43216;SDS011;71549;42.686;23.300;2023-11-19T07:52:25;1.13;;;1.00;;
43216;SDS011;71549;42.686;23.300;2023-11-19T07:54:25;1.17;;;1.00;;
43216;SDS011;71549;42.686;23.300;2023-11-19T07:56:26;0.93;;;0.88;;
43216;SDS011;71549;42.686;23.300;2023-11-19T07:58:27;1.20;;;1.10;;
43216;SDS011;71549;42.686;23.300;2023-11-19T08:00:28;1.10;;;1.00;;
43216;SDS011;71549;42.686;23.300;2023-11-19T08:02:28;0.80;;;0.70;;
43216;SDS011;71549;42.686;23.300;2023-11-19T08:04:28;0.70;;;0.70;;
43216;SDS011;71549;42.686;23.300;2023-11-19T08:06:29;1.25;;;1.10;;
43216;SDS011;71549;42.686;23.300;2023-11-19T08:08:30;0.80;;;0.80;;
43216;SDS011;71549;42.686;23.300;2023-11-19T08:10:32;1.05;;;0.95;;
43216;SDS011;71549;42.686;23.300;2023-11-19T08:12:33;0.98;;;0.90;;
43216;SDS011;71549;42.686;23.300;2023-11-19T08:14:35;1.10;;;0.85;;
43216;SDS011;71549;42.686;23.300;2023-11-19T08:16:39;1.08;;;1.00;;
43216;SDS011;71549;42.686;23.300;2023-11-19T08:18:41;1.02;;;1.00;;
43216;SDS011;71549;42.686;23.300;2023-11-19T08:20:45;0.70;;;0.70;;
43216;SDS011;71549;42.686;23.300;2023-11-19T08:22:45;0.95;;;0.85;;
43216;SDS011;71549;42.686;23.300;2023-11-19T08:24:46;1.10;;;1.00;;
43216;SDS011;71549;42.686;23.300;2023-11-19T08:26:46;1.10;;;1.00;;
43216;SDS011;71549;42.686;23.300;2023-11-19T08:28:46;0.90;;;0.90;;
43216;SDS011;71549;42.686;23.300;2023-11-19T08:30:48;1.33;;;1.23;;
43216;SDS011;71549;42.686;23.300;2023-11-19T08:32:49;1.48;;;1.38;;
43216;SDS011;71549;42.686;23.300;2023-11-19T08:34:49;1.13;;;1.00;;
43216;SDS011;71549;42.686;23.300;2023-11-19T08:36:50;1.42;;;1.25;;
43216;SDS011;71549;42.686;23.300;2023-11-19T08:38:53;1.25;;;1.15;;
43216;SDS011;71549;42.686;23.300;2023-11-19T08:40:54;0.90;;;0.90;;
43216;SDS011;71549;42.686;23.300;2023-11-19T08:42:59;1.48;;;1.30;;
43216;SDS011;71549;42.686;23.300;2023-11-19T08:45:00;0.90;;;0.90;;
43216;SDS011;71549;42.686;23.300;2023-11-19T08:47:00;1.38;;;1.20;;
43216;SDS011;71549;42.686;23.300;2023-11-19T08:49:00;0.90;;;0.77;;
43216;SDS011;71549;42.686;23.300;2023-11-19T08:51:01;1.20;;;1.10;;
43216;SDS011;71549;42.686;23.300;2023-11-19T08:53:01;1.45;;;1.27;;
43216;SDS011;71549;42.686;23.300;2023-11-19T08:55:02;1.00;;;1.00;;
43216;SDS011;71549;42.686;23.300;2023-11-19T08:57:03;1.40;;;1.30;;
43216;SDS011;71549;42.686;23.300;2023-11-19T08:59:07;1.20;;;1.10;;
43216;SDS011;71549;42.686;23.300;2023-11-19T09:01:08;1.08;;;0.90;;
43216;SDS011;71549;42.686;23.300;2023-11-19T09:03:09;1.58;;;1.38;;
43216;SDS011;71549;42.686;23.300;2023-11-19T09:05:10;0.93;;;0.70;;
43216;SDS011;71549;42.686;23.300;2023-11-19T09:07:10;1.23;;;1.13;;
43216;SDS011;71549;42.686;23.300;2023-11-19T09:09:11;1.40;;;1.30;;
43216;SDS011;71549;42.686;23.300;2023-11-19T09:11:11;1.50;;;1.20;;
43216;SDS011;71549;42.686;23.300;2023-11-19T09:13:12;1.10;;;1.00;;
43216;SDS011;71549;42.686;23.300;2023-11-19T09:15:12;1.25;;;1.15;;
43216;SDS011;71549;42.686;23.300;2023-11-19T09:17:13;1.30;;;1.20;;
43216;SDS011;71549;42.686;23.300;2023-11-19T09:19:13;0.93;;;0.93;;
43216;SDS011;71549;42.686;23.300;2023-11-19T09:21:15;1.35;;;1.25;;
43216;SDS011;71549;42.686;23.300;2023-11-19T09:23:15;1.35;;;1.25;;
43216;SDS011;71549;42.686;23.300;2023-11-19T09:25:16;1.23;;;1.13;;
43216;SDS011;71549;42.686;23.300;2023-11-19T09:27:17;1.98;;;1.58;;
43216;SDS011;71549;42.686;23.300;2023-11-19T09:29:17;1.20;;;1.05;;
43216;SDS011;71549;42.686;23.300;2023-11-19T09:31:18;0.93;;;0.93;;
43216;SDS011;71549;42.686;23.300;2023-11-19T09:33:18;1.15;;;1.05;;
43216;SDS011;71549;42.686;23.300;2023-11-19T09:35:20;1.67;;;1.58;;
43216;SDS011;71549;42.686;23.300;2023-11-19T09:37:21;1.50;;;1.30;;
43216;SDS011;71549;42.686;23.300;2023-11-19T09:39:22;1.23;;;1.13;;
43216;SDS011;71549;42.686;23.300;2023-11-19T09:41:22;1.30;;;1.20;;
43216;SDS011;71549;42.686;23.300;2023-11-19T09:43:25;1.27;;;1.17;;
43216;SDS011;71549;42.686;23.300;2023-11-19T09:45:29;1.30;;;1.20;;
43216;SDS011;71549;42.686;23.300;2023-11-19T09:47:34;1.23;;;1.17;;
43216;SDS011;71549;42.686;23.300;2023-11-19T09:49:34;1.10;;;1.00;;
43216;SDS011;71549;42.686;23.300;2023-11-19T09:51:36;1.70;;;1.60;;
43216;SDS011;71549;42.686;23.300;2023-11-19T09:53:37;1.50;;;1.40;;
43216;SDS011;71549;42.686;23.300;2023-11-19T09:55:38;1.27;;;1.17;;
43216;SDS011;71549;42.686;23.300;2023-11-19T09:57:39;1.25;;;1.15;;
43216;SDS011;71549;42.686;23.300;2023-11-19T09:59:40;1.50;;;1.40;;
43216;SDS011;71549;42.686;23.300;2023-11-19T10:01:42;1.58;;;1.30;;
43216;SDS011;71549;42.686;23.300;2023-11-19T10:03:43;1.67;;;1.58;;
43216;SDS011;71549;42.686;23.300;2023-11-19T10:05:47;0.90;;;0.90;;
43216;SDS011;71549;42.686;23.300;2023-11-19T10:07:47;1.00;;;1.00;;
43216;SDS011;71549;42.686;23.300;2023-11-19T10:09:50;1.23;;;1.13;;
43216;SDS011;71549;42.686;23.300;2023-11-19T10:11:51;1.13;;;1.02;;
43216;SDS011;71549;42.686;23.300;2023-11-19T10:13:51;1.20;;;1.10;;
43216;SDS011;71549;42.686;23.300;2023-11-19T10:15:54;1.50;;;1.40;;
43216;SDS011;71549;42.686;23.300;2023-11-19T10:19:57;1.42;;;1.33;;
43216;SDS011;71549;42.686;23.300;2023-11-19T10:22:03;1.48;;;1.38;;
43216;SDS011;71549;42.686;23.300;2023-11-19T10:24:05;1.65;;;1.50;;
43216;SDS011;71549;42.686;23.300;2023-11-19T10:26:05;1.30;;;1.20;;
43216;SDS011;71549;42.686;23.300;2023-11-19T10:28:06;1.00;;;0.90;;
43216;SDS011;71549;42.686;23.300;2023-11-19T10:30:07;1.33;;;1.23;;
43216;SDS011;71549;42.686;23.300;2023-11-19T10:32:10;1.20;;;1.10;;
43216;SDS011;71549;42.686;23.300;2023-11-19T10:34:23;1.10;;;1.00;;
43216;SDS011;71549;42.686;23.300;2023-11-19T10:36:37;1.55;;;1.27;;
43216;SDS011;71549;42.686;23.300;2023-11-19T10:38:40;1.33;;;1.23;;
43216;SDS011;71549;42.686;23.300;2023-11-19T10:40:53;1.73;;;1.60;;
43216;SDS011;71549;42.686;23.300;2023-11-19T10:43:01;1.40;;;1.20;;
43216;SDS011;71549;42.686;23.300;2023-11-19T10:45:03;1.40;;;1.10;;
43216;SDS011;71549;42.686;23.300;2023-11-19T10:47:05;1.33;;;1.20;;
43216;SDS011;71549;42.686;23.300;2023-11-19T10:49:07;1.40;;;1.30;;
43216;SDS011;71549;42.686;23.300;2023-11-19T10:51:08;1.58;;;1.48;;
43216;SDS011;71549;42.686;23.300;2023-11-19T10:53:11;1.20;;;1.10;;
43216;SDS011;71549;42.686;23.300;2023-11-19T10:55:15;1.33;;;1.23;;
43216;SDS011;71549;42.686;23.300;2023-11-19T10:57:22;1.40;;;1.30;;
43216;SDS011;71549;42.686;23.300;2023-11-19T10:59:30;1.90;;;1.35;;
43216;SDS011;71549;42.686;23.300;2023-11-19T11:01:43;1.33;;;1.23;;
43216;SDS011;71549;42.686;23.300;2023-11-19T11:03:46;1.55;;;1.45;;
43216;SDS011;71549;42.686;23.300;2023-11-19T11:05:47;1.58;;;1.38;;
43216;SDS011;71549;42.686;23.300;2023-11-19T11:07:49;1.35;;;1.25;;
43216;SDS011;71549;42.686;23.300;2023-11-19T11:09:52;1.50;;;1.40;;
43216;SDS011;71549;42.686;23.300;2023-11-19T11:11:53;1.40;;;1.30;;
43216;SDS011;71549;42.686;23.300;2023-11-19T11:13:55;1.45;;;1.35;;
43216;SDS011;71549;42.686;23.300;2023-11-19T11:16:00;1.60;;;1.50;;
43216;SDS011;71549;42.686;23.300;2023-11-19T11:18:01;1.17;;;1.08;;
43216;SDS011;71549;42.686;23.300;2023-11-19T11:20:02;1.60;;;1.50;;
43216;SDS011;71549;42.686;23.300;2023-11-19T11:22:04;1.35;;;1.25;;
43216;SDS011;71549;42.686;23.300;2023-11-19T11:28:58;1.27;;;1.17;;
43216;SDS011;71549;42.686;23.300;2023-11-19T11:38:08;1.35;;;1.25;;
43216;SDS011;71549;42.686;23.300;2023-11-19T11:40:11;1.83;;;1.55;;
43216;SDS011;71549;42.686;23.300;2023-11-19T11:44:57;1.33;;;1.23;;
43216;SDS011;71549;42.686;23.300;2023-11-19T11:47:02;1.40;;;1.30;;
43216;SDS011;71549;42.686;23.300;2023-11-19T11:51:04;1.25;;;1.20;;
43216;SDS011;71549;42.686;23.300;2023-11-19T11:55:06;1.80;;;1.08;;
43216;SDS011;71549;42.686;23.300;2023-11-19T11:57:10;1.27;;;1.17;;
43216;SDS011;71549;42.686;23.300;2023-11-19T11:59:18;1.42;;;1.33;;
43216;SDS011;71549;42.686;23.300;2023-11-19T12:01:19;1.17;;;1.08;;
43216;SDS011;71549;42.686;23.300;2023-11-19T12:03:21;1.58;;;1.48;;
43216;SDS011;71549;42.686;23.300;2023-11-19T12:05:22;1.48;;;1.38;;
43216;SDS011;71549;42.686;23.300;2023-11-19T12:07:23;1.30;;;1.17;;
43216;SDS011;71549;42.686;23.300;2023-11-19T12:09:25;1.40;;;1.30;;
43216;SDS011;71549;42.686;23.300;2023-11-19T12:11:26;1.42;;;1.33;;
43216;SDS011;71549;42.686;23.300;2023-11-19T12:19:56;1.17;;;1.10;;
43216;SDS011;71549;42.686;23.300;2023-11-19T12:21:57;1.63;;;1.50;;
43216;SDS011;71549;42.686;23.300;2023-11-19T12:23:59;1.50;;;1.40;;
43216;SDS011;71549;42.686;23.300;2023-11-19T12:26:07;1.40;;;1.10;;
43216;SDS011;71549;42.686;23.300;2023-11-19T12:28:12;1.20;;;1.10;;
43216;SDS011;71549;42.686;23.300;2023-11-19T12:30:22;1.30;;;1.20;;
43216;SDS011;71549;42.686;23.300;2023-11-19T12:32:24;1.98;;;1.23;;